Startpagina
METAR-TAF:

METAR-TAF

Vliegvelden :

Thoothukudi, India

breedte: 8-43-27N, lengte: 78-01-33E, hoogte: 39 m

Actueel weer

Dit bericht is 13 minuten geleden gemaakt, om 02:30 UTC
Wind 3 kt uit het westen
Temperatuur 30°C
Vochtigheid 62%
Druk 1010 hPa
Zicht: 6000 m
Weinig wolken op 2000 ft
Gebroken wolken op 10000 ft

METAR: VOTK 260230Z 28003KT 6000 FEW020 BKN100 30/22 Q1010 NOSIG

Tijdstip: 08:13 (02:43 UTC)

Verwachting

Dit bericht is 3 uur en het 43 minuten geleden gemaakt, om 23:00 UTC
Verwachting geldig van 26 om 00 UTC tot 26 om 09 UTC
Wind 5 kt uit het westen
Zicht: 6000 m
Weinig wolken op 2000 ft
Verspreide wolken op 10000 ft
Wijzigt naar
van 26 om 06 UTC tot 26 om 07 UTC
Wind 10 kt uit het westen met uitschieters tot 20 kt
Tijdelijke
van 26 om 06 UTC tot 26 om 09 UTC
Verspreide wolken op 1800 ft
Gebroken wolken op 10000 ft

TAF: VOTK 252300Z 2600/2609 27005KT 6000 FEW020 SCT100 BECMG 2606/2607 27010G20KT TEMPO 2606/2609 SCT018 FEW025TCU/CB BKN100

Waarnemingen en weersverwachtingen van meer dan 4000 vliegvelden (METAR en TAF).

De beschikbare stations zijn de gele en rode punten op de kaart.

Ga met uw muis naar het station om de naam te zien.

Klik dan om waarnemingen en weersverwachtingen te zien.

kaart wijzigen: klik op de groene knoppen met een zwart kruis om in te zoomen, op de groene knop met een streepje om uit te zoomen of op de groene pijlen voor aangrenzende kaarten.


METAR-TAF: